Time;durP1;ratioP1;P1;durP2;ratioP2;P2;SDS_P1;SDS_P2;PMS_P1;PMS_P2;Temp;Humidity;BMP_temperature;BMP_pressure;BME280_temperature;BME280_humidity;BME280_pressure;Samples;Min_cycle;Max_cycle;Signal;HPM_P1;HPM_P2
2023/05/07 00:01:37;;;;;;;10.73;6.88;;;13.50;99.90;;;;;;5038494;28;20083;-70
2023/05/07 00:04:07;;;;;;;10.48;6.30;;;13.70;99.90;;;;;;5011257;28;20057;-73
2023/05/07 00:06:38;;;;;;;8.68;6.28;;;13.80;99.90;;;;;;5010085;28;20053;-68
2023/05/07 00:09:07;;;;;;;12.10;6.63;;;14.10;99.90;;;;;;5041219;28;20068;-70
2023/05/07 00:11:40;;;;;;;7.95;5.85;;;14.40;99.90;;;;;;5025669;28;20387;-69
2023/05/07 00:14:08;;;;;;;13.60;7.25;;;14.40;99.90;;;;;;5065105;28;20452;-69
2023/05/07 00:16:38;;;;;;;9.45;6.75;;;14.40;99.90;;;;;;5026214;28;20144;-68
2023/05/07 00:19:06;;;;;;;9.43;5.93;;;14.40;99.90;;;;;;5023780;28;20045;-69
2023/05/07 00:21:53;;;;;;;10.52;6.38;;;14.40;99.90;;;;;;5005997;28;20046;-72
2023/05/07 00:24:22;;;;;;;12.65;6.95;;;14.40;99.90;;;;;;5047950;28;20063;-69
2023/05/07 00:26:53;;;;;;;10.75;6.57;;;14.30;99.90;;;;;;5032235;28;20062;-69
2023/05/07 00:29:25;;;;;;;9.20;6.13;;;14.30;99.90;;;;;;5017584;28;20446;-69
2023/05/07 00:31:54;;;;;;;11.95;6.85;;;14.20;99.90;;;;;;5022287;28;20625;-73
2023/05/07 00:34:22;;;;;;;15.93;6.93;;;14.20;99.90;;;;;;5058137;28;20056;-71
2023/05/07 00:36:49;;;;;;;10.52;7.20;;;14.30;99.90;;;;;;5005499;28;20049;-71
2023/05/07 00:39:19;;;;;;;9.48;6.47;;;14.10;99.90;;;;;;5023012;28;20482;-74
2023/05/07 00:41:51;;;;;;;10.32;7.35;;;14.10;99.90;;;;;;5048677;28;20055;-68
2023/05/07 00:44:22;;;;;;;11.57;7.38;;;14.00;99.90;;;;;;5053629;28;20048;-79
2023/05/07 00:47:04;;;;;;;15.27;8.52;;;13.90;99.90;;;;;;5029753;28;20088;-71
2023/05/07 00:49:39;;;;;;;11.82;8.13;;;14.00;99.90;;;;;;5045095;28;20049;-72
2023/05/07 00:52:09;;;;;;;13.15;7.53;;;14.00;99.90;;;;;;5056428;28;20061;-70
2023/05/07 00:54:36;;;;;;;12.65;8.13;;;13.90;99.90;;;;;;5025132;28;20056;-70
2023/05/07 00:57:06;;;;;;;15.52;7.90;;;13.80;99.90;;;;;;5040119;28;20052;-73
2023/05/07 00:59:34;;;;;;;12.05;7.90;;;13.90;99.90;;;;;;5042392;28;20629;-78
2023/05/07 01:02:09;;;;;;;12.48;7.45;;;13.90;99.90;;;;;;5053689;28;20053;-70
2023/05/07 01:04:41;;;;;;;14.13;7.47;;;13.90;99.90;;;;;;5028029;28;20036;-72
2023/05/07 01:07:09;;;;;;;11.75;7.75;;;13.80;99.90;;;;;;5037691;28;20111;-70
2023/05/07 01:09:41;;;;;;;16.17;7.90;;;13.80;99.90;;;;;;5024137;28;20406;-73
2023/05/07 01:12:14;;;;;;;13.35;8.55;;;13.70;99.90;;;;;;5006398;28;20053;-70
2023/05/07 01:14:45;;;;;;;10.57;7.32;;;13.60;99.90;;;;;;5030083;28;20048;-70
2023/05/07 01:17:19;;;;;;;11.88;8.57;;;13.60;99.90;;;;;;5015588;28;20055;-70
2023/05/07 01:19:47;;;;;;;12.25;7.95;;;13.40;99.90;;;;;;5060090;28;20054;-69
2023/05/07 01:22:17;;;;;;;13.63;8.05;;;13.30;99.90;;;;;;5069439;28;20052;-73
2023/05/07 01:24:45;;;;;;;11.95;7.88;;;13.30;99.90;;;;;;5068040;28;20391;-74
2023/05/07 01:27:13;;;;;;;11.40;8.93;;;13.20;99.90;;;;;;5028964;28;20053;-72
2023/05/07 01:29:42;;;;;;;9.70;8.23;;;13.40;99.90;;;;;;5048065;28;20057;-76
2023/05/07 01:32:09;;;;;;;11.82;8.40;;;13.30;99.90;;;;;;5051352;28;20057;-75
2023/05/07 01:34:41;;;;;;;14.23;7.97;;;13.30;99.90;;;;;;5039579;28;20037;-70
2023/05/07 01:37:08;;;;;;;10.63;8.13;;;13.30;99.90;;;;;;5007590;28;20061;-71
2023/05/07 01:39:39;;;;;;;12.68;7.32;;;13.20;99.90;;;;;;5014810;28;20136;-79
2023/05/07 01:42:09;;;;;;;11.70;7.90;;;13.20;99.90;;;;;;5013745;28;20057;-71
2023/05/07 01:44:40;;;;;;;11.23;8.05;;;13.20;99.90;;;;;;5026492;28;20481;-70
2023/05/07 01:47:12;;;;;;;12.93;7.47;;;13.20;99.90;;;;;;5035250;28;20056;-71
2023/05/07 01:49:40;;;;;;;12.57;7.93;;;13.20;99.90;;;;;;5023776;28;20049;-71
2023/05/07 01:52:11;;;;;;;11.32;7.93;;;13.20;99.90;;;;;;5024117;28;20068;-72
2023/05/07 01:54:39;;;;;;;11.75;7.95;;;13.20;99.90;;;;;;5011439;28;20080;-76
2023/05/07 01:57:06;;;;;;;10.27;7.50;;;12.90;99.90;;;;;;5055013;28;20418;-76
2023/05/07 01:59:35;;;;;;;11.85;9.02;;;13.00;99.90;;;;;;5038134;28;20048;-78
2023/05/07 02:02:02;;;;;;;14.95;7.30;;;13.00;99.90;;;;;;5048497;28;20052;-77
2023/05/07 02:04:30;;;;;;;11.10;7.60;;;12.90;99.90;;;;;;5059954;28;20059;-72
2023/05/07 02:06:57;;;;;;;9.18;7.28;;;12.90;99.90;;;;;;5028561;28;20572;-70
2023/05/07 02:09:27;;;;;;;10.73;8.70;;;12.80;99.90;;;;;;5034877;28;20054;-70
2023/05/07 02:11:54;;;;;;;11.55;7.45;;;12.70;99.90;;;;;;5007172;28;20049;-72
2023/05/07 02:14:21;;;;;;;11.60;7.97;;;12.70;99.90;;;;;;5062823;28;20088;-72
2023/05/07 02:16:49;;;;;;;11.85;8.43;;;12.80;99.90;;;;;;5042540;28;20125;-72
2023/05/07 02:19:20;;;;;;;10.80;7.90;;;12.60;99.90;;;;;;5036788;28;20079;-71
2023/05/07 02:21:51;;;;;;;11.23;7.95;;;12.70;99.90;;;;;;5021555;28;20410;-73
2023/05/07 02:24:18;;;;;;;10.27;8.10;;;12.70;99.90;;;;;;5048005;28;20055;-71
2023/05/07 02:26:46;;;;;;;11.77;7.95;;;12.80;99.90;;;;;;5038045;28;20041;-70
2023/05/07 02:29:13;;;;;;;14.98;8.35;;;12.90;99.90;;;;;;5001046;28;20049;-77
2023/05/07 02:31:40;;;;;;;13.70;8.18;;;12.80;99.90;;;;;;5053153;28;20129;-78
2023/05/07 02:34:08;;;;;;;10.75;7.88;;;12.80;99.90;;;;;;5027701;28;20057;-69
2023/05/07 02:36:51;;;;;;;10.55;8.07;;;12.70;99.90;;;;;;5028444;28;20053;-70
2023/05/07 02:39:19;;;;;;;12.35;8.10;;;12.80;99.90;;;;;;5047847;28;20052;-71
2023/05/07 02:41:46;;;;;;;11.75;7.97;;;12.80;99.90;;;;;;5022651;28;20050;-72
2023/05/07 02:44:14;;;;;;;11.07;8.07;;;12.70;99.90;;;;;;5040418;28;20120;-69
2023/05/07 02:46:44;;;;;;;10.40;7.65;;;12.60;99.90;;;;;;5022862;28;20049;-79
2023/05/07 02:49:11;;;;;;;12.40;8.73;;;12.50;99.90;;;;;;5036312;28;20054;-77
2023/05/07 02:51:40;;;;;;;13.85;8.07;;;12.50;99.90;;;;;;5059702;28;20075;-78
2023/05/07 02:54:08;;;;;;;12.95;7.90;;;12.50;99.90;;;;;;5010054;28;20053;-73
2023/05/07 02:56:35;;;;;;;11.93;7.68;;;12.50;99.90;;;;;;5068721;28;20037;-70
2023/05/07 02:59:07;;;;;;;12.85;8.13;;;12.50;99.90;;;;;;5024251;28;20042;-70
2023/05/07 03:01:37;;;;;;;10.10;7.57;;;12.40;99.90;;;;;;5027867;28;20053;-79
2023/05/07 03:04:04;;;;;;;12.27;8.43;;;12.10;99.90;;;;;;5034401;28;20088;-80
2023/05/07 03:06:37;;;;;;;9.35;7.53;;;12.30;99.90;;;;;;5062133;28;20045;-69
2023/05/07 03:09:05;;;;;;;11.45;8.32;;;12.40;99.90;;;;;;5023493;28;20493;-73
2023/05/07 03:11:35;;;;;;;11.85;8.23;;;12.30;99.90;;;;;;5021131;28;20121;-78
2023/05/07 03:14:02;;;;;;;13.02;8.13;;;12.30;99.90;;;;;;5023812;28;20053;-70
2023/05/07 03:16:30;;;;;;;11.70;7.88;;;12.20;99.90;;;;;;5021575;28;20053;-72
2023/05/07 03:18:57;;;;;;;9.82;7.57;;;12.30;99.90;;;;;;5058050;28;20077;-74
2023/05/07 03:21:26;;;;;;;11.13;7.45;;;12.40;99.90;;;;;;5050178;28;20068;-74
2023/05/07 03:23:55;;;;;;;9.20;7.20;;;12.40;99.90;;;;;;5049112;28;20054;-69
2023/05/07 03:26:31;;;;;;;13.07;8.15;;;12.40;99.90;;;;;;5047422;28;20069;-69
2023/05/07 03:32:11;;;;;;;10.80;7.95;;;12.30;99.90;;;;;;5054221;28;20046;-79
2023/05/07 03:34:38;;;;;;;9.90;7.88;;;12.30;99.90;;;;;;5041367;28;20045;-77
2023/05/07 03:37:06;;;;;;;12.38;8.32;;;12.30;99.90;;;;;;5043775;28;20510;-73
2023/05/07 03:39:33;;;;;;;11.52;8.05;;;12.20;99.90;;;;;;5039013;28;20073;-70
2023/05/07 03:42:00;;;;;;;9.77;7.70;;;12.20;99.90;;;;;;5004733;28;20076;-70
2023/05/07 03:44:29;;;;;;;11.55;7.93;;;12.30;99.90;;;;;;5032203;28;20061;-71
2023/05/07 03:46:56;;;;;;;12.07;7.70;;;12.30;99.90;;;;;;5034696;28;20120;-73
2023/05/07 03:49:25;;;;;;;12.75;8.93;;;12.00;99.90;;;;;;5016761;28;20076;-73
2023/05/07 03:51:52;;;;;;;15.20;7.97;;;12.30;99.90;;;;;;5063341;28;20055;-73
2023/05/07 03:54:19;;;;;;;14.88;8.20;;;12.30;99.90;;;;;;5059627;28;20049;-70
2023/05/07 03:56:49;;;;;;;10.10;7.35;;;12.20;99.90;;;;;;5023139;28;20113;-77
2023/05/07 03:59:19;;;;;;;11.18;7.85;;;12.30;99.90;;;;;;5044794;28;20145;-69
2023/05/07 04:01:48;;;;;;;13.43;8.60;;;12.40;99.90;;;;;;5015208;28;20123;-70
2023/05/07 04:04:16;;;;;;;10.80;7.55;;;12.40;99.90;;;;;;5026587;28;20064;-71
2023/05/07 04:06:45;;;;;;;14.73;7.60;;;12.30;99.90;;;;;;5024224;28;20053;-69
2023/05/07 04:09:13;;;;;;;9.50;7.13;;;12.30;99.90;;;;;;5010109;28;20057;-75
2023/05/07 04:11:41;;;;;;;11.35;7.60;;;12.50;99.90;;;;;;5068597;28;20646;-74
2023/05/07 04:14:12;;;;;;;10.35;7.25;;;12.50;99.90;;;;;;5055803;28;20061;-69
2023/05/07 04:16:42;;;;;;;10.82;7.57;;;12.60;99.90;;;;;;5033436;28;20083;-69
2023/05/07 04:19:10;;;;;;;11.93;7.90;;;12.60;99.90;;;;;;5040824;28;20054;-72
2023/05/07 04:21:37;;;;;;;11.90;7.72;;;12.70;99.90;;;;;;5054710;28;20041;-73
2023/05/07 04:24:05;;;;;;;11.13;7.60;;;12.60;99.90;;;;;;5072502;28;20064;-69
2023/05/07 04:26:34;;;;;;;10.75;7.28;;;12.50;99.90;;;;;;5069255;28;20047;-74
2023/05/07 04:29:06;;;;;;;13.25;8.50;;;12.60;99.90;;;;;;5054412;28;20052;-76
2023/05/07 04:31:38;;;;;;;11.73;7.85;;;12.80;99.90;;;;;;5038667;28;20045;-72
2023/05/07 04:34:06;;;;;;;11.27;7.80;;;12.70;99.90;;;;;;5057646;28;20048;-69
2023/05/07 04:36:35;;;;;;;10.68;6.75;;;12.80;99.90;;;;;;5051050;28;20057;-72
2023/05/07 04:39:04;;;;;;;10.63;7.15;;;12.80;99.90;;;;;;5045112;28;20041;-70
2023/05/07 04:41:36;;;;;;;11.90;7.60;;;12.90;99.90;;;;;;5028717;28;20050;-70
2023/05/07 04:44:09;;;;;;;9.02;6.80;;;12.90;99.90;;;;;;5037512;28;20052;-78
2023/05/07 04:46:36;;;;;;;10.20;7.23;;;13.00;99.90;;;;;;5068432;28;20051;-76
2023/05/07 04:49:03;;;;;;;11.32;7.00;;;12.90;99.90;;;;;;5059104;28;20322;-79
2023/05/07 04:51:42;;;;;;;9.50;6.80;;;13.00;99.90;;;;;;5034691;28;20037;-68
2023/05/07 04:54:10;;;;;;;9.75;6.85;;;13.10;99.90;;;;;;5031386;28;20055;-69
2023/05/07 04:56:38;;;;;;;11.60;7.38;;;13.20;99.90;;;;;;5047823;28;20044;-75
2023/05/07 04:59:07;;;;;;;9.95;7.07;;;13.20;99.90;;;;;;5066743;28;20057;-71
2023/05/07 05:01:36;;;;;;;9.50;7.03;;;13.20;99.90;;;;;;5047126;28;20053;-73
2023/05/07 05:04:13;;;;;;;10.90;8.10;;;13.30;99.90;;;;;;5045569;28;20053;-72
2023/05/07 05:06:40;;;;;;;10.05;7.30;;;13.50;99.90;;;;;;5013549;28;20407;-71
2023/05/07 05:09:07;;;;;;;10.55;7.47;;;13.60;99.90;;;;;;5032112;28;20058;-70
2023/05/07 05:11:37;;;;;;;11.57;7.68;;;13.70;99.90;;;;;;5034842;28;20380;-77
2023/05/07 05:14:04;;;;;;;10.45;7.50;;;13.70;99.90;;;;;;5054400;28;20049;-77
2023/05/07 05:16:31;;;;;;;10.60;7.60;;;13.60;99.90;;;;;;5040583;28;20061;-74
2023/05/07 05:18:59;;;;;;;12.57;7.60;;;13.60;99.90;;;;;;5060550;28;20048;-70
2023/05/07 05:21:27;;;;;;;9.35;7.60;;;13.60;99.90;;;;;;5020078;28;20057;-71
2023/05/07 05:23:54;;;;;;;13.15;7.93;;;13.70;99.90;;;;;;5030192;28;20065;-73
2023/05/07 05:26:24;;;;;;;14.68;8.73;;;13.70;99.90;;;;;;5061857;28;20063;-70
2023/05/07 05:28:51;;;;;;;11.85;8.20;;;13.70;99.90;;;;;;5029583;28;20113;-74
2023/05/07 05:31:19;;;;;;;12.43;8.70;;;13.70;99.90;;;;;;5047118;28;20514;-70
2023/05/07 05:33:46;;;;;;;11.88;8.23;;;13.80;99.90;;;;;;5037469;28;20053;-81
2023/05/07 05:36:14;;;;;;;14.60;7.82;;;13.90;99.90;;;;;;5056313;28;20081;-78
2023/05/07 05:38:43;;;;;;;13.63;8.63;;;13.90;99.90;;;;;;5046517;28;20050;-69
2023/05/07 05:41:11;;;;;;;13.48;8.63;;;13.90;99.90;;;;;;5031154;28;20446;-71
2023/05/07 05:43:38;;;;;;;14.68;8.07;;;13.80;99.90;;;;;;5036070;28;20144;-76
2023/05/07 05:46:11;;;;;;;14.30;8.25;;;13.90;99.90;;;;;;5050180;28;20049;-70
2023/05/07 05:48:41;;;;;;;11.40;7.72;;;14.00;99.90;;;;;;5030902;28;20049;-70
2023/05/07 05:51:09;;;;;;;12.68;8.20;;;14.00;99.90;;;;;;5041544;22;20048;-71
2023/05/07 05:53:38;;;;;;;12.32;8.30;;;14.00;99.90;;;;;;5001627;28;20050;-69
2023/05/07 05:56:21;;;;;;;13.23;8.07;;;14.20;99.90;;;;;;4992419;28;20060;-71
2023/05/07 05:58:48;;;;;;;12.65;7.57;;;14.10;99.90;;;;;;4987446;28;20041;-73
2023/05/07 06:01:18;;;;;;;10.02;7.70;;;14.00;99.90;;;;;;4993318;28;20495;-71
2023/05/07 06:03:49;;;;;;;13.52;8.10;;;13.90;99.90;;;;;;5001272;28;20069;-73
2023/05/07 06:06:16;;;;;;;12.07;7.80;;;14.10;99.90;;;;;;4989938;28;20403;-71
2023/05/07 06:08:46;;;;;;;14.60;7.85;;;14.30;99.90;;;;;;4977158;28;20153;-71
2023/05/07 06:11:14;;;;;;;9.65;7.43;;;14.30;99.90;;;;;;4982463;28;20126;-75
2023/05/07 06:13:41;;;;;;;9.73;7.65;;;14.40;99.90;;;;;;4981457;28;20050;-79
2023/05/07 06:16:09;;;;;;;12.23;7.82;;;14.60;99.90;;;;;;4982138;28;20057;-70
2023/05/07 06:18:46;;;;;;;11.82;7.63;;;14.50;99.90;;;;;;5141228;22;20021;-71
2023/05/07 06:21:19;;;;;;;12.45;8.18;;;14.50;99.90;;;;;;4988441;28;20042;-74
2023/05/07 06:23:52;;;;;;;14.13;7.72;;;14.50;99.90;;;;;;5023876;28;20113;-71
2023/05/07 06:26:20;;;;;;;10.43;7.47;;;14.70;99.90;;;;;;4988507;28;20038;-76
2023/05/07 06:28:50;;;;;;;10.80;7.28;;;14.80;99.90;;;;;;5015085;28;20057;-72
2023/05/07 06:31:23;;;;;;;9.98;7.88;;;14.80;99.90;;;;;;5018466;28;20149;-69
2023/05/07 06:34:07;;;;;;;10.60;7.68;;;14.80;99.90;;;;;;4983733;28;20076;-77
2023/05/07 06:36:35;;;;;;;13.15;7.63;;;14.90;99.90;;;;;;5027894;28;20070;-72
2023/05/07 06:39:11;;;;;;;11.10;7.65;;;15.10;99.90;;;;;;5025758;28;20111;-76
2023/05/07 06:41:39;;;;;;;9.77;7.40;;;15.00;99.90;;;;;;5009187;28;20113;-75
2023/05/07 06:44:06;;;;;;;25.85;17.90;;;15.00;99.90;;;;;;5023181;28;20046;-81
2023/05/07 06:46:42;;;;;;;15.60;11.00;;;15.20;99.90;;;;;;5027582;28;20033;-76
2023/05/07 06:49:09;;;;;;;24.20;16.15;;;15.30;99.90;;;;;;5029616;28;20297;-74
2023/05/07 06:51:39;;;;;;;13.88;9.38;;;15.40;99.90;;;;;;4992674;28;20041;-68
2023/05/07 06:54:11;;;;;;;11.77;8.77;;;15.40;99.90;;;;;;4985371;28;20049;-73
2023/05/07 06:56:45;;;;;;;26.08;16.20;;;15.50;99.90;;;;;;5003054;28;20058;-70
2023/05/07 06:59:20;;;;;;;34.15;22.90;;;15.60;99.90;;;;;;5023944;28;20042;-72
2023/05/07 07:01:55;;;;;;;67.85;39.05;;;15.80;99.90;;;;;;4974703;28;20054;-70
2023/05/07 07:04:34;;;;;;;106.50;67.72;;;16.00;99.90;;;;;;4953228;28;20088;-71
2023/05/07 07:07:35;;;;;;;60.15;40.67;;;16.20;99.90;;;;;;5005314;28;20050;-70
2023/05/07 07:10:10;;;;;;;39.15;28.83;;;16.30;99.90;;;;;;4982418;28;20050;-70
2023/05/07 07:12:38;;;;;;;15.73;11.85;;;16.30;99.90;;;;;;4975954;28;20393;-79
2023/05/07 07:15:08;;;;;;;13.57;8.02;;;16.10;99.90;;;;;;5000569;28;20046;-70
2023/05/07 07:17:36;;;;;;;10.55;7.57;;;16.10;99.90;;;;;;4960520;28;20070;-73
2023/05/07 07:20:07;;;;;;;10.43;6.97;;;16.10;99.90;;;;;;4993124;28;20054;-70
2023/05/07 07:22:42;;;;;;;11.80;7.00;;;16.20;99.90;;;;;;4983739;28;20323;-71
2023/05/07 07:25:14;;;;;;;9.63;6.03;;;16.30;99.90;;;;;;5003768;28;20110;-74
2023/05/07 07:27:42;;;;;;;11.63;6.80;;;16.40;99.90;;;;;;5011331;28;20042;-70
2023/05/07 07:30:31;;;;;;;9.38;6.68;;;16.40;99.90;;;;;;4988180;28;20137;-74
2023/05/07 07:33:10;;;;;;;67.10;40.88;;;16.40;99.90;;;;;;4970606;28;20085;-72
2023/05/07 07:35:40;;;;;;;87.20;57.05;;;16.40;99.90;;;;;;4952514;28;20054;-78
2023/05/07 07:38:10;;;;;;;26.48;19.00;;;16.50;99.90;;;;;;5002857;28;20073;-72
2023/05/07 07:41:21;;;;;;;13.95;8.07;;;16.50;99.90;;;;;;5000242;28;20045;-69
2023/05/07 07:44:12;;;;;;;9.75;6.78;;;16.70;99.90;;;;;;4985866;28;20051;-70
2023/05/07 07:46:43;;;;;;;9.32;6.50;;;16.80;99.90;;;;;;5013036;28;20042;-70
2023/05/07 07:49:11;;;;;;;9.30;6.63;;;16.90;99.90;;;;;;4997971;28;20051;-69
2023/05/07 07:51:39;;;;;;;10.15;6.80;;;16.90;99.90;;;;;;4991004;28;20043;-69
2023/05/07 07:54:07;;;;;;;9.48;6.53;;;16.90;99.90;;;;;;5006444;28;20038;-74
2023/05/07 07:56:34;;;;;;;9.32;6.35;;;16.90;99.90;;;;;;4982556;28;20058;-72
2023/05/07 07:59:02;;;;;;;8.27;5.63;;;16.90;99.90;;;;;;5003540;28;20065;-70
2023/05/07 08:01:32;;;;;;;9.45;5.93;;;17.20;99.90;;;;;;5010728;28;20381;-70
2023/05/07 08:04:00;;;;;;;9.25;6.80;;;17.20;99.90;;;;;;4984362;28;20082;-70
2023/05/07 08:06:30;;;;;;;9.18;6.05;;;17.30;99.90;;;;;;4979676;28;20141;-70
2023/05/07 08:09:24;;;;;;;8.57;5.75;;;17.30;99.90;;;;;;4968744;28;20116;-71
2023/05/07 08:11:51;;;;;;;10.45;6.45;;;17.40;99.90;;;;;;4997539;28;20058;-71
2023/05/07 08:14:44;;;;;;;12.10;5.63;;;17.40;99.90;;;;;;4976620;28;20047;-70
2023/05/07 08:17:15;;;;;;;8.85;6.13;;;17.40;99.90;;;;;;4978015;28;20062;-71
2023/05/07 08:19:47;;;;;;;13.75;6.07;;;17.40;99.90;;;;;;5006408;28;20126;-70
2023/05/07 08:22:22;;;;;;;8.50;6.22;;;17.60;99.90;;;;;;5009193;28;20062;-70
2023/05/07 08:24:53;;;;;;;9.00;6.15;;;17.90;99.90;;;;;;5000037;28;20054;-70
2023/05/07 08:27:23;;;;;;;10.68;7.03;;;17.90;99.90;;;;;;5005038;28;20089;-71
2023/05/07 08:29:50;;;;;;;9.68;6.65;;;17.90;99.90;;;;;;4975145;28;20141;-70
2023/05/07 08:32:18;;;;;;;9.77;6.03;;;18.00;99.90;;;;;;4992983;28;20070;-72
2023/05/07 08:34:48;;;;;;;12.35;5.93;;;17.80;99.90;;;;;;4970676;28;20074;-71
2023/05/07 08:37:41;;;;;;;8.38;6.32;;;17.80;99.90;;;;;;4975816;28;20114;-73
2023/05/07 08:40:10;;;;;;;13.00;6.80;;;17.90;99.90;;;;;;5013498;28;20034;-72
2023/05/07 08:43:00;;;;;;;7.90;5.32;;;18.20;99.90;;;;;;4971873;28;20046;-70
2023/05/07 08:45:45;;;;;;;7.93;5.97;;;18.20;99.90;;;;;;4976028;28;20113;-71
2023/05/07 08:48:21;;;;;;;9.98;5.65;;;18.30;99.90;;;;;;4990772;28;20042;-72
2023/05/07 08:50:51;;;;;;;8.68;5.57;;;18.40;99.90;;;;;;4976771;28;20054;-71
2023/05/07 08:53:29;;;;;;;7.40;5.10;;;18.60;99.90;;;;;;4973642;28;20051;-71
2023/05/07 08:56:07;;;;;;;7.70;5.20;;;18.70;98.90;;;;;;4982271;28;20068;-70
2023/05/07 08:58:36;;;;;;;7.57;5.03;;;18.80;97.60;;;;;;5017020;28;20046;-69
2023/05/07 09:01:15;;;;;;;9.07;5.35;;;18.80;96.80;;;;;;5007518;28;20072;-70
2023/05/07 09:03:48;;;;;;;7.97;5.07;;;19.00;96.60;;;;;;4960797;28;20050;-69
2023/05/07 09:06:15;;;;;;;22.88;16.35;;;19.10;96.80;;;;;;4972612;28;20054;-69
2023/05/07 09:08:53;;;;;;;35.67;23.80;;;19.30;96.70;;;;;;4992752;28;20070;-75
2023/05/07 09:11:28;;;;;;;9.93;7.07;;;19.40;96.10;;;;;;5007763;28;20046;-71
2023/05/07 09:14:54;;;;;;;7.70;5.25;;;19.50;95.00;;;;;;4969150;28;20061;-70
2023/05/07 09:17:52;;;;;;;8.38;4.93;;;19.50;93.90;;;;;;4986498;28;20054;-79
2023/05/07 09:20:31;;;;;;;6.95;4.88;;;19.60;93.90;;;;;;4989422;28;20062;-71
2023/05/07 09:23:18;;;;;;;18.27;11.68;;;19.80;94.20;;;;;;4991373;28;21897;-79
2023/05/07 09:25:48;;;;;;;261.17;161.10;;;20.00;94.20;;;;;;4985149;28;20059;-72
2023/05/07 09:28:17;;;;;;;20.63;15.52;;;20.30;92.70;;;;;;4994581;28;20437;-70
2023/05/07 09:30:55;;;;;;;10.15;6.95;;;20.40;91.90;;;;;;4978773;28;20047;-71
2023/05/07 09:33:40;;;;;;;7.95;5.95;;;20.40;90.40;;;;;;4988444;28;20047;-71
2023/05/07 09:36:27;;;;;;;11.32;7.15;;;20.40;91.40;;;;;;4951542;28;20047;-72
2023/05/07 09:39:05;;;;;;;7.65;4.97;;;20.40;92.20;;;;;;4970444;28;20417;-72
2023/05/07 09:41:44;;;;;;;9.20;5.25;;;20.60;92.80;;;;;;4977652;28;20048;-71
2023/05/07 09:44:19;;;;;;;9.38;6.20;;;20.80;91.90;;;;;;4980510;28;20262;-72
2023/05/07 09:47:00;;;;;;;9.10;4.82;;;21.00;91.20;;;;;;4960567;29;20449;-70
2023/05/07 09:49:36;;;;;;;12.85;5.82;;;21.00;90.40;;;;;;4971210;28;20070;-72
2023/05/07 09:52:10;;;;;;;10.38;5.32;;;21.10;90.60;;;;;;4981739;28;20150;-72
2023/05/07 09:54:42;;;;;;;9.07;5.43;;;21.10;89.00;;;;;;4977114;28;20099;-74
2023/05/07 09:57:14;;;;;;;8.18;4.88;;;21.30;88.20;;;;;;4989428;28;20047;-73
2023/05/07 09:59:45;;;;;;;7.80;4.38;;;21.50;88.50;;;;;;4975966;28;20058;-74
2023/05/07 10:02:21;;;;;;;9.13;5.20;;;21.80;85.70;;;;;;4971144;28;20051;-74
2023/05/07 10:04:54;;;;;;;9.50;4.93;;;21.90;85.70;;;;;;4977719;28;20051;-78
2023/05/07 10:07:24;;;;;;;6.78;4.35;;;22.00;83.80;;;;;;4981113;28;20081;-80
2023/05/07 10:09:53;;;;;;;26.03;17.07;;;22.10;85.30;;;;;;4974607;28;20125;-71
2023/05/07 10:12:56;;;;;;;80.45;52.72;;;22.20;85.60;;;;;;4989959;28;20279;-80
2023/05/07 10:15:32;;;;;;;130.93;83.25;;;22.40;83.30;;;;;;5010312;28;20043;-70
2023/05/07 10:18:33;;;;;;;15.75;10.45;;;22.30;81.40;;;;;;4991433;28;20535;-70
2023/05/07 10:21:31;;;;;;;6.53;4.32;;;22.20;79.90;;;;;;4968070;28;20131;-69
2023/05/07 10:24:18;;;;;;;6.93;3.70;;;22.40;81.70;;;;;;4970401;28;20051;-71
2023/05/07 10:27:16;;;;;;;8.63;4.55;;;22.60;80.30;;;;;;4968258;28;20030;-71
2023/05/07 10:30:10;;;;;;;10.20;5.85;;;22.70;79.20;;;;;;4951612;28;20475;-73
2023/05/07 10:32:47;;;;;;;63.13;40.75;;;22.70;80.50;;;;;;4978293;28;20054;-71
2023/05/07 10:35:22;;;;;;;28.85;19.75;;;22.60;82.10;;;;;;4979780;28;20055;-79
2023/05/07 10:37:53;;;;;;;16.33;5.88;;;22.50;80.80;;;;;;4980721;28;20043;-73
2023/05/07 10:40:42;;;;;;;7.68;4.35;;;22.50;80.50;;;;;;4966473;28;20051;-77
2023/05/07 10:43:14;;;;;;;8.10;4.20;;;22.70;80.80;;;;;;4944485;28;20081;-75
2023/05/07 10:46:19;;;;;;;8.43;4.33;;;22.90;81.10;;;;;;4966325;28;20058;-76
2023/05/07 10:49:06;;;;;;;5.32;3.50;;;22.90;79.20;;;;;;4982402;28;20293;-74
2023/05/07 10:51:41;;;;;;;5.03;3.50;;;23.30;75.30;;;;;;4967478;28;20051;-74
2023/05/07 10:54:10;;;;;;;9.00;4.20;;;23.30;76.30;;;;;;4980571;28;20058;-75
2023/05/07 10:56:43;;;;;;;9.38;3.72;;;23.40;75.30;;;;;;4955192;28;20082;-80
2023/05/07 10:59:41;;;;;;;8.00;4.05;;;23.50;72.80;;;;;;4950526;28;20075;-75
2023/05/07 11:02:15;;;;;;;11.23;6.00;;;23.20;71.70;;;;;;4978282;28;20106;-75
2023/05/07 11:05:34;;;;;;;12.10;8.73;;;23.40;73.50;;;;;;4970455;28;20054;-81
2023/05/07 11:08:37;;;;;;;9.40;5.50;;;23.60;74.40;;;;;;4954320;28;20047;-75
2023/05/07 11:11:55;;;;;;;6.57;4.03;;;23.80;72.80;;;;;;4977210;28;20460;-78
2023/05/07 11:14:59;;;;;;;6.78;4.22;;;24.00;70.70;;;;;;4956718;28;20031;-72
2023/05/07 11:17:59;;;;;;;6.78;4.15;;;24.20;72.80;;;;;;4940151;29;20055;-80
2023/05/07 11:21:19;;;;;;;9.02;3.55;;;24.20;74.10;;;;;;4985311;28;20125;-72
2023/05/07 11:23:49;;;;;;;27.20;19.60;;;24.40;71.00;;;;;;4966429;28;20046;-74
2023/05/07 11:26:50;;;;;;;25.15;20.13;;;24.50;67.00;;;;;;4996775;28;20069;-79
2023/05/07 11:29:25;;;;;;;46.92;35.83;;;24.30;67.70;;;;;;5013348;28;20080;-74
2023/05/07 11:32:02;;;;;;;18.95;11.68;;;24.40;67.40;;;;;;4975315;28;20078;-73
2023/05/07 11:34:59;;;;;;;7.63;3.80;;;24.40;67.30;;;;;;5006453;28;20058;-74
2023/05/07 11:37:34;;;;;;;10.38;6.70;;;24.40;66.90;;;;;;4984773;28;20064;-75
2023/05/07 11:40:20;;;;;;;13.88;10.77;;;24.40;69.80;;;;;;4967036;28;20046;-74
2023/05/07 11:44:03;;;;;;;8.10;5.18;;;24.40;70.40;;;;;;4983239;28;20046;-75
2023/05/07 11:47:03;;;;;;;5.15;3.60;;;24.90;69.90;;;;;;4988032;28;20058;-73
2023/05/07 11:49:51;;;;;;;7.47;3.67;;;25.30;67.80;;;;;;4992667;28;20035;-81
2023/05/07 11:52:56;;;;;;;7.38;4.38;;;25.50;68.40;;;;;;5008067;28;20459;-76
2023/05/07 11:55:57;;;;;;;6.50;3.90;;;25.30;67.40;;;;;;5005246;28;20077;-86
2023/05/07 11:59:32;;;;;;;7.70;4.30;;;25.60;67.90;;;;;;5001665;28;20034;-72
2023/05/07 12:02:38;;;;;;;6.82;3.38;;;25.80;66.80;;;;;;4979624;28;20049;-81
2023/05/07 12:07:48;;;;;;;6.25;4.05;;;25.50;63.30;;;;;;4793336;26;20029;-78
2023/05/07 12:10:38;;;;;;;6.72;3.88;;;25.50;63.90;;;;;;5035241;28;20057;-76
2023/05/07 12:13:29;;;;;;;6.65;3.70;;;25.80;64.20;;;;;;5005153;28;20057;-77
2023/05/07 12:16:31;;;;;;;11.98;8.57;;;26.10;64.30;;;;;;5031533;28;20034;-78
2023/05/07 12:19:20;;;;;;;42.60;32.80;;;26.10;64.90;;;;;;5041061;28;20045;-76
2023/05/07 12:21:56;;;;;;;18.77;12.07;;;26.00;65.70;;;;;;5017998;28;20050;-72
2023/05/07 12:24:25;;;;;;;9.23;4.25;;;26.10;65.00;;;;;;5010299;28;20050;-74
2023/05/07 12:33:14;;;;;;;8.95;3.80;;;26.50;62.20;;;;;;4731182;26;20426;-74
2023/05/07 12:36:07;;;;;;;;;;;26.70;61.40;;;;;;5035253;28;20063;-74
2023/05/07 12:39:47;;;;;;;5.25;3.10;;;26.20;61.30;;;;;;5068468;28;19944;-73
2023/05/07 12:43:05;;;;;;;5.70;3.30;;;26.50;61.60;;;;;;5044533;28;20052;-76
2023/05/07 12:46:08;;;;;;;5.90;3.47;;;26.80;61.30;;;;;;5046286;28;20045;-78
2023/05/07 12:49:10;;;;;;;5.45;3.60;;;27.20;60.30;;;;;;5047118;28;20049;-76
2023/05/07 12:51:53;;;;;;;5.63;3.35;;;27.10;59.40;;;;;;5055398;28;20128;-76
2023/05/07 12:55:08;;;;;;;6.82;4.18;;;27.00;58.80;;;;;;5016398;28;20045;-75
2023/05/07 12:59:09;;;;;;;6.22;3.42;;;27.20;60.60;;;;;;5012027;28;20396;-76
2023/05/07 13:02:28;;;;;;;17.88;13.80;;;26.90;57.90;;;;;;5001192;28;20044;-75
2023/05/07 13:05:35;;;;;;;63.25;47.42;;;27.20;58.90;;;;;;5009388;28;20037;-76
2023/05/07 13:09:28;;;;;;;28.20;20.65;;;27.50;57.70;;;;;;5016176;28;20042;-78
2023/05/07 13:15:59;;;;;;;6.22;4.13;;;27.90;57.50;;;;;;5052498;28;20045;-75
2023/05/07 13:19:43;;;;;;;9.43;5.35;;;27.30;57.00;;;;;;5045339;28;20060;-77
2023/05/07 13:23:11;;;;;;;8.27;3.90;;;28.00;57.80;;;;;;5040604;28;20033;-79
2023/05/07 13:26:18;;;;;;;11.35;6.93;;;29.90;55.20;;;;;;5039813;28;20044;-82
2023/05/07 15:03:39;;;;;;;6.80;3.47;;;38.40;41.80;;;;;;5618377;22;20050;-79
2023/05/07 15:06:22;;;;;;;7.03;2.85;;;38.00;41.80;;;;;;4974836;28;20029;-81
2023/05/07 15:22:22;;;;;;;4.70;2.75;;;36.90;41.50;;;;;;5741027;22;20397;-79
2023/05/07 15:28:27;;;;;;;5.53;2.92;;;36.40;42.50;;;;;;3223717;26;20060;-78
2023/05/07 16:33:00;;;;;;;5.55;3.00;;;32.50;45.30;;;;;;4612696;26;20041;-79
2023/05/07 16:39:12;;;;;;;29.50;24.40;;;28.40;51.80;;;;;;6183276;22;20257;-79
2023/05/07 16:41:54;;;;;;;;;;;;;;;;;;;;;
2023/05/07 16:46:04;;;;;;;21.45;17.85;;;26.70;54.80;;;;;;5036007;28;20041;-81